Time;durP1;ratioP1;P1;durP2;ratioP2;P2;SDS_P1;SDS_P2;PMS_P1;PMS_P2;Temp;Humidity;BMP_temperature;BMP_pressure;BME280_temperature;BME280_humidity;BME280_pressure;Samples;Min_cycle;Max_cycle;Signal;HPM_P1;HPM_P2
2024/05/05 00:00:16;;;;;;;8.00;6.57;;;11.40;99.90;;;;;;5378830;26;20086;-85
2024/05/05 00:03:01;;;;;;;6.85;6.35;;;11.40;99.90;;;;;;5393156;26;20385;-83
2024/05/05 00:05:49;;;;;;;6.90;6.20;;;11.40;99.90;;;;;;5376299;26;21305;-84
2024/05/05 00:08:33;;;;;;;7.13;6.53;;;11.50;99.90;;;;;;5377756;26;20041;-85
2024/05/05 00:11:19;;;;;;;7.00;6.40;;;11.50;99.90;;;;;;5392985;26;20019;-84
2024/05/05 00:14:06;;;;;;;7.50;6.80;;;11.50;99.90;;;;;;5379342;26;20100;-83
2024/05/05 00:16:51;;;;;;;6.95;6.35;;;11.50;99.90;;;;;;5359966;26;20057;-85
2024/05/05 00:19:36;;;;;;;7.25;6.65;;;11.60;99.90;;;;;;5378557;26;20108;-84
2024/05/05 00:22:23;;;;;;;8.10;7.32;;;11.60;99.90;;;;;;5385356;26;20054;-84
2024/05/05 00:25:09;;;;;;;8.50;7.68;;;11.60;99.90;;;;;;5379569;26;20080;-86
2024/05/05 00:27:54;;;;;;;6.57;5.97;;;11.60;99.90;;;;;;5382935;26;20344;-84
2024/05/05 00:30:39;;;;;;;7.75;7.05;;;11.60;99.90;;;;;;5381393;26;20016;-84
2024/05/05 00:33:24;;;;;;;7.35;6.57;;;11.50;99.90;;;;;;5380906;26;20031;-84
2024/05/05 00:36:09;;;;;;;7.95;7.20;;;11.40;99.90;;;;;;5387770;26;20022;-84
2024/05/05 00:38:56;;;;;;;7.72;6.80;;;11.30;99.90;;;;;;5381428;26;20373;-84
2024/05/05 00:41:42;;;;;;;7.68;6.97;;;11.40;99.90;;;;;;5383099;26;20082;-85
2024/05/05 00:44:32;;;;;;;8.13;7.32;;;11.30;99.90;;;;;;5382377;26;20018;-83
2024/05/05 00:47:17;;;;;;;8.55;7.75;;;11.30;99.90;;;;;;5380702;26;20019;-84
2024/05/05 00:50:04;;;;;;;9.55;8.65;;;11.20;99.90;;;;;;5385722;26;20056;-84
2024/05/05 00:52:53;;;;;;;8.48;7.68;;;11.30;99.90;;;;;;5385883;26;20858;-84
2024/05/05 00:55:42;;;;;;;8.98;8.18;;;11.30;99.90;;;;;;5385970;26;20360;-84
2024/05/05 00:58:27;;;;;;;9.57;8.55;;;11.30;99.90;;;;;;5391184;26;20093;-84
2024/05/05 01:01:13;;;;;;;9.23;8.40;;;11.30;99.90;;;;;;5384502;26;20014;-84
2024/05/05 01:03:58;;;;;;;8.50;7.78;;;11.40;99.90;;;;;;5384405;26;20384;-83
2024/05/05 01:06:44;;;;;;;8.63;7.88;;;11.40;99.90;;;;;;5381633;26;20509;-84
2024/05/05 01:09:30;;;;;;;9.18;8.35;;;11.40;99.90;;;;;;5392042;26;20022;-84
2024/05/05 01:12:18;;;;;;;9.90;8.77;;;11.40;99.90;;;;;;5379393;26;20011;-84
2024/05/05 01:15:04;;;;;;;9.73;8.80;;;11.50;99.90;;;;;;5389412;26;20019;-84
2024/05/05 01:17:49;;;;;;;8.80;7.97;;;11.50;99.90;;;;;;5362458;26;20019;-84
2024/05/05 01:20:33;;;;;;;8.70;7.90;;;11.50;99.90;;;;;;5379814;26;20030;-84
2024/05/05 01:23:21;;;;;;;8.55;7.82;;;11.50;99.90;;;;;;5378486;26;20019;-85
2024/05/05 01:26:06;;;;;;;6.97;6.30;;;11.60;99.90;;;;;;5382562;26;20024;-83
2024/05/05 01:28:51;;;;;;;7.40;6.80;;;11.40;99.90;;;;;;5388485;26;20028;-83
2024/05/05 01:31:36;;;;;;;9.13;8.30;;;11.20;99.90;;;;;;5387189;26;20389;-84
2024/05/05 01:34:21;;;;;;;9.15;8.25;;;11.10;99.90;;;;;;5382382;26;20414;-84
2024/05/05 01:37:06;;;;;;;9.10;8.27;;;11.10;99.90;;;;;;5382806;26;20015;-85
2024/05/05 01:39:54;;;;;;;8.15;7.45;;;11.20;99.90;;;;;;5383843;26;20014;-84
2024/05/05 01:42:39;;;;;;;9.60;8.70;;;11.20;99.90;;;;;;5379264;26;20044;-83
2024/05/05 01:45:24;;;;;;;9.85;8.95;;;11.20;99.90;;;;;;5382255;26;20084;-83
2024/05/05 01:48:09;;;;;;;8.52;7.82;;;11.30;99.90;;;;;;5374566;26;20082;-83
2024/05/05 01:50:55;;;;;;;9.05;8.15;;;11.30;99.90;;;;;;5385766;26;20018;-83
2024/05/05 01:53:43;;;;;;;10.23;9.10;;;11.30;99.90;;;;;;5375491;26;20011;-83
2024/05/05 01:56:33;;;;;;;8.88;8.07;;;11.30;99.90;;;;;;5390675;26;20470;-83
2024/05/05 01:59:18;;;;;;;9.13;8.32;;;11.30;99.90;;;;;;5379402;26;20014;-83
2024/05/05 02:02:05;;;;;;;9.80;8.90;;;11.20;99.90;;;;;;5383076;26;20084;-83
2024/05/05 02:04:50;;;;;;;9.95;8.95;;;11.30;99.90;;;;;;5370968;26;20019;-83
2024/05/05 02:07:35;;;;;;;10.23;9.32;;;11.20;99.90;;;;;;5379652;26;20523;-83
2024/05/05 02:10:20;;;;;;;11.32;10.32;;;11.10;99.90;;;;;;5386540;26;20514;-84
2024/05/05 02:13:10;;;;;;;11.85;10.75;;;11.10;99.90;;;;;;5380139;26;20040;-83
2024/05/05 02:15:55;;;;;;;11.27;10.18;;;11.10;99.90;;;;;;5375606;26;20015;-84
2024/05/05 02:18:45;;;;;;;12.20;10.98;;;11.10;99.90;;;;;;5384731;26;20765;-84
2024/05/05 02:21:30;;;;;;;11.00;10.00;;;11.10;99.90;;;;;;5384369;26;20097;-84
2024/05/05 02:24:15;;;;;;;11.45;10.43;;;11.10;99.90;;;;;;5380989;26;20095;-84
2024/05/05 02:27:00;;;;;;;;;;;11.10;99.90;;;;;;5388703;26;20086;-84
2024/05/05 02:29:49;;;;;;;11.30;10.23;;;11.10;99.90;;;;;;5395050;26;20289;-84
2024/05/05 02:32:34;;;;;;;11.88;10.73;;;11.10;99.90;;;;;;5382495;26;20913;-84
2024/05/05 02:35:20;;;;;;;11.13;10.00;;;11.10;99.90;;;;;;5385616;26;20019;-84
2024/05/05 02:38:05;;;;;;;12.15;10.40;;;11.10;99.90;;;;;;5388658;26;20031;-84
2024/05/05 02:40:50;;;;;;;11.80;10.65;;;11.10;99.90;;;;;;5390665;26;20018;-84
2024/05/05 02:43:35;;;;;;;12.30;11.10;;;11.00;99.90;;;;;;5393702;26;20097;-84
2024/05/05 02:46:23;;;;;;;12.68;11.50;;;11.00;99.90;;;;;;5390334;26;20393;-84
2024/05/05 02:49:07;;;;;;;12.80;11.55;;;10.90;99.90;;;;;;5391159;26;20347;-85
2024/05/05 02:51:52;;;;;;;13.13;11.93;;;11.00;99.90;;;;;;5388627;26;20014;-83
2024/05/05 02:54:39;;;;;;;13.57;12.45;;;10.90;99.90;;;;;;5391282;26;20023;-84
2024/05/05 02:57:25;;;;;;;14.15;12.75;;;10.90;99.90;;;;;;5387321;26;20349;-85
2024/05/05 03:00:11;;;;;;;15.90;14.23;;;10.90;99.90;;;;;;5381661;26;20034;-85
2024/05/05 03:02:59;;;;;;;15.68;14.05;;;10.90;99.90;;;;;;5386600;26;20022;-85
2024/05/05 03:05:43;;;;;;;14.05;12.75;;;10.90;99.90;;;;;;5386641;26;20073;-85
2024/05/05 03:08:28;;;;;;;14.82;13.27;;;10.90;99.90;;;;;;5393041;26;20023;-84
2024/05/05 03:11:13;;;;;;;15.13;13.52;;;10.90;99.90;;;;;;5385420;26;20090;-84
2024/05/05 03:13:58;;;;;;;14.00;12.60;;;10.80;99.90;;;;;;5380573;26;20399;-85
2024/05/05 03:16:44;;;;;;;14.65;13.25;;;10.90;99.90;;;;;;5391914;26;20081;-84
2024/05/05 03:19:31;;;;;;;14.60;13.10;;;10.80;99.90;;;;;;5380359;26;20100;-84
2024/05/05 03:22:16;;;;;;;14.57;13.18;;;10.80;99.90;;;;;;5382316;26;20386;-85
2024/05/05 03:25:01;;;;;;;;;;;10.80;99.90;;;;;;5391146;26;20073;-84
2024/05/05 03:27:48;;;;;;;14.95;13.55;;;10.80;99.90;;;;;;5385191;26;19932;-85
2024/05/05 03:30:33;;;;;;;14.25;12.85;;;10.70;99.90;;;;;;5384873;26;20386;-85
2024/05/05 03:33:19;;;;;;;14.00;12.60;;;10.70;99.90;;;;;;5378371;26;20108;-85
2024/05/05 03:36:07;;;;;;;14.68;13.27;;;10.70;99.90;;;;;;5387605;26;20601;-85
2024/05/05 03:38:55;;;;;;;13.93;12.57;;;10.70;99.90;;;;;;5390002;26;20018;-85
2024/05/05 03:41:40;;;;;;;13.57;12.27;;;10.70;99.90;;;;;;5382908;26;20022;-85
2024/05/05 03:44:25;;;;;;;14.02;12.63;;;10.60;99.90;;;;;;5390419;26;20014;-84
2024/05/05 03:47:10;;;;;;;14.35;13.05;;;10.60;99.90;;;;;;5373625;26;20025;-85
2024/05/05 03:49:55;;;;;;;13.35;12.15;;;10.60;99.90;;;;;;5365620;26;20423;-84
2024/05/05 03:52:43;;;;;;;14.95;13.43;;;10.70;99.90;;;;;;5375151;26;20513;-85
2024/05/05 03:55:31;;;;;;;14.90;13.50;;;10.60;99.90;;;;;;5373914;26;20403;-85
2024/05/05 03:58:16;;;;;;;17.38;14.70;;;10.70;99.90;;;;;;5370535;26;20019;-85
2024/05/05 04:01:01;;;;;;;16.65;14.95;;;10.70;99.90;;;;;;5371315;26;20016;-84
2024/05/05 04:03:47;;;;;;;20.30;17.17;;;10.60;99.90;;;;;;5377704;26;20467;-84
2024/05/05 04:06:32;;;;;;;21.40;18.65;;;10.70;99.90;;;;;;5368657;26;20011;-85
2024/05/05 04:09:21;;;;;;;21.15;18.88;;;10.60;99.90;;;;;;5384248;26;20018;-85
2024/05/05 04:12:06;;;;;;;20.98;18.40;;;10.60;99.90;;;;;;5381997;26;20499;-85
2024/05/05 04:14:53;;;;;;;18.73;16.92;;;10.60;99.90;;;;;;5371998;26;20015;-85
2024/05/05 04:17:38;;;;;;;18.85;16.95;;;10.60;99.90;;;;;;5377190;26;20015;-84
2024/05/05 04:20:23;;;;;;;17.80;16.02;;;10.70;99.90;;;;;;5374749;26;20022;-85
2024/05/05 04:23:08;;;;;;;16.70;14.90;;;10.80;99.90;;;;;;5370770;26;20012;-85
2024/05/05 04:25:56;;;;;;;15.07;13.32;;;10.80;99.90;;;;;;5370605;26;20007;-84
2024/05/05 04:28:41;;;;;;;15.77;14.18;;;10.80;99.90;;;;;;5386774;26;20028;-85
2024/05/05 04:31:26;;;;;;;15.43;13.93;;;10.80;99.90;;;;;;5391748;26;20522;-85
2024/05/05 04:34:11;;;;;;;15.50;13.15;;;10.80;99.90;;;;;;5391877;26;20089;-84
2024/05/05 04:36:56;;;;;;;14.07;12.77;;;10.80;99.90;;;;;;5390606;26;20029;-85
2024/05/05 04:39:41;;;;;;;14.07;12.77;;;10.90;99.90;;;;;;5391006;26;20015;-84
2024/05/05 04:42:29;;;;;;;15.50;13.40;;;10.90;99.90;;;;;;5392266;26;20088;-84
2024/05/05 04:45:14;;;;;;;13.40;12.10;;;10.80;99.90;;;;;;5388135;26;20015;-85
2024/05/05 04:47:59;;;;;;;12.68;11.38;;;10.80;99.90;;;;;;5392098;26;20040;-84
2024/05/05 04:50:44;;;;;;;12.90;11.68;;;10.80;99.90;;;;;;5386958;26;20080;-86
2024/05/05 04:53:29;;;;;;;13.32;12.02;;;10.90;99.90;;;;;;5391987;26;20015;-85
2024/05/05 04:56:14;;;;;;;12.90;11.60;;;10.90;99.90;;;;;;5389010;26;20367;-84
2024/05/05 04:59:02;;;;;;;12.20;11.00;;;11.00;99.90;;;;;;5384622;26;20015;-82
2024/05/05 05:01:49;;;;;;;11.82;10.73;;;11.00;99.90;;;;;;5391797;26;20023;-83
2024/05/05 05:04:34;;;;;;;11.82;10.80;;;10.90;99.90;;;;;;5389769;26;20021;-83
2024/05/05 05:07:19;;;;;;;11.48;10.40;;;10.90;99.90;;;;;;5394738;26;20374;-83
2024/05/05 05:10:05;;;;;;;12.57;11.27;;;10.80;99.90;;;;;;5397508;26;20018;-83
2024/05/05 05:12:54;;;;;;;12.05;10.82;;;10.70;99.90;;;;;;5378450;26;20023;-82
2024/05/05 05:15:42;;;;;;;13.98;12.13;;;10.70;99.90;;;;;;5389858;26;20519;-85
2024/05/05 05:18:27;;;;;;;13.90;12.60;;;10.60;99.90;;;;;;5389654;26;20019;-83
2024/05/05 05:21:12;;;;;;;13.73;11.52;;;10.70;99.90;;;;;;5386565;26;20365;-83
2024/05/05 05:23:57;;;;;;;12.35;11.15;;;10.70;99.90;;;;;;5389992;26;20035;-82
2024/05/05 05:26:43;;;;;;;11.23;10.13;;;10.70;99.90;;;;;;5385692;26;20018;-83
2024/05/05 05:29:28;;;;;;;10.90;9.80;;;10.70;99.90;;;;;;5386344;26;20030;-83
2024/05/05 05:32:16;;;;;;;13.07;9.25;;;10.80;99.90;;;;;;5394989;26;20124;-82
2024/05/05 05:35:01;;;;;;;10.40;9.32;;;10.90;99.90;;;;;;5388073;26;20027;-83
2024/05/05 05:37:48;;;;;;;10.48;9.48;;;10.90;99.90;;;;;;5396257;26;20089;-83
2024/05/05 05:40:33;;;;;;;10.13;9.18;;;10.90;99.90;;;;;;5390150;26;20015;-83
2024/05/05 05:43:17;;;;;;;10.23;9.23;;;11.00;99.90;;;;;;5384505;26;20407;-83
2024/05/05 05:46:03;;;;;;;10.30;9.27;;;11.20;99.90;;;;;;5385618;26;20049;-83
2024/05/05 05:48:51;;;;;;;8.95;8.15;;;11.10;99.90;;;;;;5381811;26;20015;-83
2024/05/05 05:51:39;;;;;;;8.27;7.50;;;11.10;99.90;;;;;;5390817;26;20022;-83
2024/05/05 05:54:23;;;;;;;7.80;7.10;;;11.10;99.90;;;;;;5393256;26;20550;-85
2024/05/05 05:57:08;;;;;;;7.88;7.18;;;11.10;99.90;;;;;;5387285;26;20011;-85
2024/05/05 05:59:53;;;;;;;8.60;7.70;;;11.10;99.90;;;;;;5380591;26;20010;-82
2024/05/05 06:02:38;;;;;;;8.55;7.75;;;11.10;99.90;;;;;;5386065;26;20018;-84
2024/05/05 06:05:44;;;;;;;9.40;8.50;;;11.20;99.90;;;;;;5393294;26;20529;-83
2024/05/05 06:08:38;;;;;;;8.70;7.97;;;11.30;99.90;;;;;;5395585;26;20022;-84
2024/05/05 06:11:53;;;;;;;8.85;8.05;;;11.40;99.90;;;;;;5386463;26;20059;-85
2024/05/05 06:14:44;;;;;;;8.48;7.68;;;11.60;99.90;;;;;;5384074;26;20430;-84
2024/05/05 06:17:28;;;;;;;9.98;7.65;;;11.60;99.90;;;;;;5388552;26;20039;-84
2024/05/05 06:20:14;;;;;;;8.95;8.15;;;11.70;99.90;;;;;;5388558;26;20090;-84
2024/05/05 06:23:04;;;;;;;9.35;8.52;;;11.70;99.90;;;;;;5392804;26;20418;-84
2024/05/05 06:26:26;;;;;;;8.43;7.50;;;11.80;99.90;;;;;;5378131;26;20081;-85
2024/05/05 06:29:11;;;;;;;7.55;6.50;;;11.80;99.90;;;;;;5365115;26;20040;-84
2024/05/05 06:31:56;;;;;;;6.47;5.88;;;11.90;99.90;;;;;;5379081;26;20881;-85
2024/05/05 06:34:43;;;;;;;6.72;6.03;;;11.90;99.90;;;;;;5392629;26;20077;-85
2024/05/05 06:37:31;;;;;;;5.65;5.15;;;11.90;99.90;;;;;;5387404;26;20023;-84
2024/05/05 06:40:18;;;;;;;5.63;4.82;;;11.90;99.90;;;;;;5382110;26;20067;-84
2024/05/05 06:43:04;;;;;;;4.57;4.18;;;11.90;99.90;;;;;;5377217;26;20495;-84
2024/05/05 06:45:49;;;;;;;5.43;4.93;;;11.90;99.90;;;;;;5376901;26;20018;-84
2024/05/05 06:48:34;;;;;;;7.20;4.25;;;12.00;99.90;;;;;;5384505;26;20090;-85
2024/05/05 06:51:24;;;;;;;3.75;3.17;;;12.10;99.90;;;;;;5390017;26;20019;-85
2024/05/05 06:54:09;;;;;;;2.97;2.47;;;12.40;99.90;;;;;;5387638;26;20091;-85
2024/05/05 06:57:00;;;;;;;2.92;2.72;;;12.50;99.90;;;;;;5387183;26;20084;-85
2024/05/05 06:59:44;;;;;;;2.63;2.42;;;12.50;99.90;;;;;;5375821;26;20020;-83
2024/05/05 07:02:30;;;;;;;3.05;2.47;;;12.30;99.90;;;;;;5380171;26;20522;-84
2024/05/05 07:05:18;;;;;;;2.20;2.00;;;12.20;99.90;;;;;;5390095;26;20022;-84
2024/05/05 07:08:30;;;;;;;2.78;1.85;;;12.10;99.90;;;;;;5383716;26;20065;-83
2024/05/05 07:11:15;;;;;;;2.40;2.20;;;12.00;99.90;;;;;;5379498;26;20698;-83
2024/05/05 07:14:03;;;;;;;2.58;2.17;;;12.10;99.90;;;;;;5370529;26;20015;-83
2024/05/05 07:16:48;;;;;;;2.65;2.15;;;12.10;99.90;;;;;;5406446;26;20619;-84
2024/05/05 07:19:33;;;;;;;2.75;2.17;;;12.30;99.90;;;;;;5378168;26;20027;-83
2024/05/05 07:22:18;;;;;;;3.38;1.95;;;12.40;99.90;;;;;;5379533;26;20026;-83
2024/05/05 07:25:04;;;;;;;3.15;2.15;;;12.40;99.90;;;;;;5382480;26;20356;-82
2024/05/05 07:27:49;;;;;;;2.08;1.88;;;12.50;99.90;;;;;;5375205;26;20123;-83
2024/05/05 07:30:36;;;;;;;2.00;1.80;;;12.80;99.90;;;;;;5386783;26;20033;-83
2024/05/05 07:33:26;;;;;;;1.85;1.50;;;13.10;99.90;;;;;;5384571;26;20368;-83
2024/05/05 07:36:21;;;;;;;2.75;1.73;;;13.10;99.90;;;;;;5371510;26;20019;-83
2024/05/05 07:39:16;;;;;;;2.07;1.80;;;13.10;99.90;;;;;;5378324;26;20626;-83
2024/05/05 07:42:01;;;;;;;2.25;2.00;;;13.00;99.90;;;;;;5375532;26;20474;-83
2024/05/05 07:44:46;;;;;;;2.10;1.90;;;12.70;99.90;;;;;;5370204;26;20696;-82
2024/05/05 07:47:34;;;;;;;3.20;2.90;;;12.60;99.90;;;;;;5374002;26;20082;-82
2024/05/05 07:50:18;;;;;;;2.83;2.63;;;12.30;99.90;;;;;;5383656;26;20015;-82
2024/05/05 07:53:04;;;;;;;3.22;2.90;;;12.00;99.90;;;;;;5378918;26;20464;-83
2024/05/05 07:55:48;;;;;;;;;;;11.80;99.90;;;;;;5378243;26;20494;-82
2024/05/05 07:58:38;;;;;;;3.40;3.10;;;11.60;99.90;;;;;;5385318;26;19940;-83
2024/05/05 08:01:23;;;;;;;3.80;3.50;;;11.40;99.90;;;;;;5376648;26;20081;-82
2024/05/05 08:04:11;;;;;;;3.83;3.47;;;11.30;99.90;;;;;;5375231;26;20105;-83
2024/05/05 08:06:56;;;;;;;4.32;3.17;;;11.30;99.90;;;;;;5378663;26;20015;-83
2024/05/05 08:09:41;;;;;;;4.53;4.13;;;11.30;99.90;;;;;;5381088;26;20039;-83
2024/05/05 08:12:26;;;;;;;4.00;3.60;;;11.20;99.90;;;;;;5376566;26;20533;-83
2024/05/05 08:15:11;;;;;;;4.57;4.07;;;11.30;99.90;;;;;;5388986;26;20011;-83
2024/05/05 08:17:56;;;;;;;4.70;4.30;;;11.20;99.90;;;;;;5380210;26;20459;-83
2024/05/05 08:20:44;;;;;;;5.55;5.05;;;11.30;99.90;;;;;;5376670;26;20019;-83
2024/05/05 08:23:29;;;;;;;5.80;4.95;;;11.50;99.90;;;;;;5379418;26;20460;-82
2024/05/05 08:26:15;;;;;;;5.15;4.65;;;11.60;99.90;;;;;;5377456;26;20016;-83
2024/05/05 08:29:01;;;;;;;6.10;4.82;;;11.70;99.90;;;;;;5381213;26;20022;-84
2024/05/05 08:31:46;;;;;;;5.40;4.90;;;11.70;99.90;;;;;;5381048;26;20018;-82
2024/05/05 08:34:31;;;;;;;5.00;4.60;;;11.80;99.90;;;;;;5378594;26;20467;-83
2024/05/05 08:37:19;;;;;;;6.50;5.90;;;11.70;99.90;;;;;;5382679;26;20019;-83
2024/05/05 08:40:05;;;;;;;6.30;5.65;;;11.50;99.90;;;;;;5380292;26;20011;-82
2024/05/05 08:42:50;;;;;;;6.18;5.57;;;11.50;99.90;;;;;;5375487;26;20018;-84
2024/05/05 08:45:37;;;;;;;6.47;5.65;;;11.60;99.90;;;;;;5375227;26;20020;-84
2024/05/05 08:48:21;;;;;;;6.60;5.90;;;11.60;99.90;;;;;;5378328;26;20015;-83
2024/05/05 08:51:08;;;;;;;7.22;6.47;;;11.60;99.90;;;;;;5381217;26;20081;-84
2024/05/05 08:53:55;;;;;;;7.28;6.47;;;11.70;99.90;;;;;;5384264;26;20082;-82
2024/05/05 08:56:43;;;;;;;7.95;6.63;;;11.70;99.90;;;;;;5382722;26;20022;-79
2024/05/05 08:59:29;;;;;;;9.65;6.30;;;11.70;99.90;;;;;;5370496;26;20044;-79
2024/05/05 09:02:15;;;;;;;7.15;6.45;;;11.70;99.90;;;;;;5359812;26;20497;-79
2024/05/05 09:05:02;;;;;;;9.07;7.20;;;11.70;99.90;;;;;;5353530;26;20020;-79
2024/05/05 09:07:47;;;;;;;9.48;7.18;;;11.80;99.90;;;;;;5366233;26;20032;-81
2024/05/05 09:10:36;;;;;;;8.68;7.82;;;12.00;99.90;;;;;;5358635;26;20048;-80
2024/05/05 09:13:21;;;;;;;8.07;7.28;;;12.10;99.90;;;;;;5375966;26;20026;-81
2024/05/05 09:16:09;;;;;;;8.40;7.53;;;12.20;99.90;;;;;;5373613;26;20015;-88
2024/05/05 09:18:54;;;;;;;8.65;7.85;;;12.20;99.90;;;;;;5385039;26;20011;-80
2024/05/05 09:21:40;;;;;;;7.25;6.63;;;12.20;99.90;;;;;;5381734;26;20014;-80
2024/05/05 09:24:26;;;;;;;9.55;7.57;;;12.30;99.90;;;;;;5369406;26;20500;-82
2024/05/05 09:27:15;;;;;;;8.63;7.75;;;12.40;99.90;;;;;;5370028;26;20015;-80
2024/05/05 09:30:01;;;;;;;9.00;8.20;;;12.50;99.90;;;;;;5376747;26;20018;-80
2024/05/05 09:32:46;;;;;;;;;;;12.60;99.90;;;;;;5368239;26;20007;-83
2024/05/05 09:35:32;;;;;;;11.45;9.20;;;12.60;99.90;;;;;;5379595;26;19932;-82
2024/05/05 09:38:18;;;;;;;9.95;8.95;;;12.50;99.90;;;;;;5375201;26;20078;-81
2024/05/05 09:41:03;;;;;;;11.73;10.23;;;12.40;99.90;;;;;;5370461;26;20074;-82
2024/05/05 09:43:53;;;;;;;10.98;9.85;;;12.30;99.90;;;;;;5369688;26;20093;-81
2024/05/05 09:46:45;;;;;;;11.10;9.50;;;12.40;99.90;;;;;;5382065;26;20916;-83
2024/05/05 09:49:34;;;;;;;10.55;9.55;;;12.40;99.90;;;;;;5374621;26;20078;-83
2024/05/05 09:52:25;;;;;;;10.93;9.88;;;12.40;99.90;;;;;;5362263;26;20019;-83
2024/05/05 09:55:16;;;;;;;11.82;10.07;;;12.30;99.90;;;;;;5372997;26;20010;-79
2024/05/05 09:58:08;;;;;;;10.35;9.35;;;12.20;99.90;;;;;;5378770;26;20011;-79
2024/05/05 10:00:55;;;;;;;10.88;9.80;;;12.10;99.90;;;;;;5355725;26;20082;-81
2024/05/05 10:03:42;;;;;;;11.50;10.27;;;12.10;99.90;;;;;;5360143;26;20019;-82
2024/05/05 10:06:28;;;;;;;10.73;9.70;;;12.10;99.90;;;;;;5365179;26;20082;-82
2024/05/05 10:09:13;;;;;;;11.43;10.35;;;12.10;99.90;;;;;;5384201;26;20356;-81
2024/05/05 10:12:07;;;;;;;11.15;10.05;;;12.20;99.90;;;;;;5386078;26;20018;-83
2024/05/05 10:14:52;;;;;;;10.52;9.60;;;12.50;99.90;;;;;;5386501;26;20105;-82
2024/05/05 10:17:39;;;;;;;11.30;10.25;;;12.70;99.90;;;;;;5379859;26;20042;-81
2024/05/05 10:20:25;;;;;;;9.65;8.75;;;12.80;99.90;;;;;;5384180;26;20493;-81
2024/05/05 10:23:10;;;;;;;10.00;9.00;;;13.00;99.90;;;;;;5378478;26;20019;-81
2024/05/05 10:26:06;;;;;;;9.50;8.40;;;13.50;99.90;;;;;;5377775;26;20106;-81
2024/05/05 10:28:56;;;;;;;8.43;7.63;;;13.90;99.90;;;;;;5386254;26;20413;-80
2024/05/05 10:31:44;;;;;;;7.40;6.70;;;14.30;99.90;;;;;;5384455;26;20014;-80
2024/05/05 10:34:31;;;;;;;8.27;6.45;;;14.50;99.90;;;;;;5386156;26;20582;-80
2024/05/05 10:37:16;;;;;;;6.72;6.13;;;14.70;99.90;;;;;;5382735;26;20355;-79
2024/05/05 10:40:02;;;;;;;6.53;5.93;;;14.80;99.90;;;;;;5385423;26;20641;-80
2024/05/05 10:42:49;;;;;;;6.30;5.70;;;14.90;99.90;;;;;;5384645;26;20364;-82
2024/05/05 10:45:35;;;;;;;6.55;5.72;;;14.80;99.90;;;;;;5380251;26;20384;-82
2024/05/05 10:48:20;;;;;;;5.85;5.32;;;15.00;99.90;;;;;;5385338;26;20015;-79
2024/05/05 10:51:12;;;;;;;6.28;5.28;;;15.10;99.90;;;;;;5379417;26;20023;-79
2024/05/05 10:53:58;;;;;;;6.45;5.32;;;15.10;99.90;;;;;;5386865;26;20015;-80
2024/05/05 10:56:43;;;;;;;5.75;5.25;;;15.10;99.90;;;;;;5388342;26;20017;-80
2024/05/05 10:59:28;;;;;;;5.47;4.97;;;15.10;99.90;;;;;;5375592;26;20463;-80
2024/05/05 11:02:23;;;;;;;;;;;15.00;99.90;;;;;;5380667;26;20082;-80
2024/05/05 11:05:10;;;;;;;6.00;5.40;;;15.00;99.90;;;;;;5374352;26;19950;-80
2024/05/05 11:07:59;;;;;;;6.15;5.50;;;14.80;99.90;;;;;;5373151;26;20071;-81
2024/05/05 11:10:51;;;;;;;6.70;5.90;;;14.60;99.90;;;;;;5358389;26;20795;-83
2024/05/05 11:13:36;;;;;;;6.38;5.30;;;14.50;99.90;;;;;;5357289;26;20373;-81
2024/05/05 11:16:21;;;;;;;6.00;5.40;;;14.50;99.90;;;;;;5370220;26;20064;-81
2024/05/05 11:19:06;;;;;;;6.55;5.10;;;14.60;99.90;;;;;;5369279;26;20010;-81
2024/05/05 11:21:59;;;;;;;30.63;11.13;;;14.50;99.90;;;;;;5349202;26;20073;-81
2024/05/05 11:24:51;;;;;;;181.73;55.92;;;14.60;99.90;;;;;;5343898;26;20020;-81
2024/05/05 11:27:36;;;;;;;20.50;9.93;;;14.60;99.90;;;;;;5366256;26;20027;-82
2024/05/05 11:30:40;;;;;;;8.02;5.38;;;14.70;99.90;;;;;;5358092;26;20023;-85
2024/05/05 11:33:26;;;;;;;5.55;4.80;;;14.90;99.90;;;;;;5362076;26;20077;-82
2024/05/05 11:36:14;;;;;;;6.13;4.45;;;15.30;99.90;;;;;;5372516;26;20141;-81
2024/05/05 11:39:17;;;;;;;11.07;5.95;;;15.50;99.90;;;;;;5358759;26;20020;-80
2024/05/05 11:42:25;;;;;;;8.45;5.60;;;15.50;99.90;;;;;;5364797;26;20471;-81
2024/05/05 11:45:15;;;;;;;6.28;4.68;;;15.40;99.90;;;;;;5368191;26;20023;-85
2024/05/05 11:48:56;;;;;;;5.15;4.57;;;15.40;99.90;;;;;;5356804;26;20105;-82
2024/05/05 11:52:33;;;;;;;10.25;5.65;;;15.80;99.90;;;;;;5357399;26;20019;-81
2024/05/05 11:55:18;;;;;;;40.70;15.15;;;16.20;99.90;;;;;;5205364;27;20082;-81
2024/05/05 11:58:07;;;;;;;;;;;16.50;99.90;;;;;;5220657;27;20143;-83
2024/05/05 12:00:52;;;;;;;5.03;4.22;;;16.50;99.90;;;;;;5332554;26;20412;-81
2024/05/05 12:03:41;;;;;;;6.25;4.30;;;16.50;99.90;;;;;;5372084;26;20045;-83
2024/05/05 12:06:27;;;;;;;4.90;4.38;;;16.50;99.90;;;;;;5368051;26;20015;-82
2024/05/05 12:09:12;;;;;;;5.57;4.20;;;16.50;99.90;;;;;;5364238;26;20085;-80
2024/05/05 12:11:57;;;;;;;;;;;16.40;99.90;;;;;;5371623;26;20555;-81
2024/05/05 12:14:51;;;;;;;7.05;4.38;;;16.40;99.90;;;;;;5367669;26;19931;-81
2024/05/05 12:17:55;;;;;;;4.40;4.00;;;16.50;99.90;;;;;;5369361;26;20131;-81
2024/05/05 12:21:07;;;;;;;6.53;3.95;;;16.80;99.90;;;;;;5356484;26;20416;-81
2024/05/05 12:23:58;;;;;;;4.35;3.90;;;16.90;99.90;;;;;;5368502;26;20023;-81
2024/05/05 12:27:15;;;;;;;4.10;3.40;;;16.70;99.90;;;;;;5346232;26;20019;-80
2024/05/05 12:30:06;;;;;;;;;;;16.70;99.90;;;;;;5327387;26;20031;-80
2024/05/05 12:32:52;;;;;;;4.47;3.20;;;16.90;99.90;;;;;;5357078;26;19999;-81
2024/05/05 12:35:44;;;;;;;3.70;3.40;;;17.00;99.90;;;;;;5343511;26;20064;-82
2024/05/05 12:38:32;;;;;;;4.47;3.22;;;17.10;99.90;;;;;;5360876;26;20100;-82
2024/05/05 12:41:34;;;;;;;4.90;3.22;;;17.20;99.90;;;;;;5368740;26;20146;-82
2024/05/05 12:44:25;;;;;;;3.75;3.17;;;17.10;99.90;;;;;;5358445;26;20102;-81
2024/05/05 12:47:15;;;;;;;4.38;2.97;;;16.80;99.90;;;;;;5365327;26;20331;-81
2024/05/05 12:50:13;;;;;;;4.35;3.25;;;16.60;99.90;;;;;;5361629;26;20027;-81
2024/05/05 12:53:02;;;;;;;3.50;2.70;;;16.50;99.90;;;;;;5357212;26;20055;-81
2024/05/05 12:55:52;;;;;;;3.13;2.83;;;16.50;99.90;;;;;;5350037;26;20064;-81
2024/05/05 12:58:41;;;;;;;3.80;3.00;;;16.40;99.90;;;;;;5359870;26;20019;-82
2024/05/05 13:01:35;;;;;;;6.25;2.90;;;16.60;99.90;;;;;;5366067;26;20011;-80
2024/05/05 13:04:35;;;;;;;3.42;3.13;;;16.90;99.90;;;;;;5351261;26;20058;-82
2024/05/05 13:07:39;;;;;;;3.17;2.80;;;17.20;99.90;;;;;;5358218;26;20019;-82
2024/05/05 13:10:30;;;;;;;4.35;2.95;;;17.40;99.90;;;;;;5354102;26;20045;-82
2024/05/05 13:13:33;;;;;;;2.85;2.30;;;17.70;99.90;;;;;;5356325;26;20083;-82
2024/05/05 13:16:33;;;;;;;4.32;2.40;;;17.80;99.90;;;;;;5358254;26;20051;-82
2024/05/05 13:19:18;;;;;;;3.67;2.60;;;17.90;99.90;;;;;;5362259;26;20019;-82
2024/05/05 13:22:08;;;;;;;2.42;2.22;;;18.70;99.90;;;;;;5362670;26;20023;-82
2024/05/05 13:25:00;;;;;;;2.42;1.95;;;19.70;99.90;;;;;;5347692;26;20119;-83
2024/05/05 13:27:45;;;;;;;3.00;2.10;;;19.90;99.90;;;;;;5355455;26;20023;-82
2024/05/05 13:30:30;;;;;;;3.30;2.35;;;19.40;99.30;;;;;;5354777;26;20046;-81
2024/05/05 13:33:16;;;;;;;;;;;18.70;99.90;;;;;;5369374;26;20092;-81
2024/05/05 13:36:01;;;;;;;3.25;2.13;;;18.30;99.90;;;;;;5372121;26;19931;-80
2024/05/05 13:38:49;;;;;;;4.50;2.30;;;17.90;99.90;;;;;;5361280;26;20024;-80
2024/05/05 13:41:37;;;;;;;3.60;2.25;;;17.40;99.90;;;;;;5366870;26;20440;-81
2024/05/05 13:44:22;;;;;;;6.05;2.40;;;17.20;99.90;;;;;;5372317;26;20359;-81
2024/05/05 13:47:11;;;;;;;3.47;2.28;;;17.10;99.90;;;;;;5348070;26;20021;-81
2024/05/05 13:50:02;;;;;;;3.40;2.05;;;17.10;99.90;;;;;;5354594;26;20502;-81
2024/05/05 13:52:50;;;;;;;7.32;2.90;;;17.30;99.90;;;;;;5368991;26;20425;-80
2024/05/05 13:55:37;;;;;;;3.20;2.00;;;17.30;99.90;;;;;;5345011;26;20350;-80
2024/05/05 13:58:23;;;;;;;4.18;2.20;;;17.00;99.90;;;;;;5372039;26;20500;-79
2024/05/05 14:01:08;;;;;;;3.45;2.30;;;16.90;99.90;;;;;;5365249;26;20475;-80
2024/05/05 14:03:57;;;;;;;;;;;16.60;99.90;;;;;;5350042;26;20089;-82
2024/05/05 14:06:42;;;;;;;2.50;1.75;;;16.40;99.90;;;;;;5353317;26;20004;-80
2024/05/05 14:09:27;;;;;;;4.05;2.17;;;16.30;99.90;;;;;;5366690;26;20467;-80
2024/05/05 14:12:15;;;;;;;4.40;2.35;;;16.20;99.90;;;;;;5350454;26;20012;-79
2024/05/05 14:15:00;;;;;;;4.63;2.03;;;16.10;99.90;;;;;;5359359;26;20415;-79
2024/05/05 14:17:48;;;;;;;3.03;1.88;;;16.30;99.90;;;;;;5360084;26;20161;-78
2024/05/05 14:20:33;;;;;;;2.90;1.83;;;17.90;99.90;;;;;;5353105;26;20107;-76
2024/05/05 14:23:17;;;;;;;3.22;2.10;;;19.70;99.90;;;;;;5354153;26;20565;-77
2024/05/05 14:26:03;;;;;;;6.18;2.50;;;19.80;98.90;;;;;;5344765;26;20019;-79
2024/05/05 14:28:53;;;;;;;4.18;1.75;;;19.00;99.40;;;;;;5369292;26;20014;-80